Time;durP1;ratioP1;P1;durP2;ratioP2;P2;SDS_P1;SDS_P2;PMS_P1;PMS_P2;Temp;Humidity;BMP_temperature;BMP_pressure;BME280_temperature;BME280_humidity;BME280_pressure;Samples;Min_cycle;Max_cycle;Signal;HPM_P1;HPM_P2
2023/10/02 00:05:05;;;;;;;12.25;5.82;;;;;;;21.20;57.81;101975.44;4941822;28;20054;-72
2023/10/02 00:07:35;;;;;;;10.70;5.90;;;;;;;21.21;57.63;101981.56;4928439;29;20043;-75
2023/10/02 00:10:02;;;;;;;10.10;5.68;;;;;;;21.20;57.63;101980.75;4929489;29;20043;-76
2023/10/02 00:12:28;;;;;;;11.00;5.55;;;;;;;21.21;57.50;101986.88;4910993;29;20071;-75
2023/10/02 00:14:55;;;;;;;11.10;5.40;;;;;;;21.20;57.46;101977.22;4933604;29;20090;-72
2023/10/02 00:17:23;;;;;;;13.60;6.03;;;;;;;21.18;57.39;101982.63;4928742;29;20036;-71
2023/10/02 00:19:57;;;;;;;12.23;6.03;;;;;;;21.18;57.71;101977.34;4908666;29;20042;-75
2023/10/02 00:22:43;;;;;;;12.13;6.10;;;;;;;21.18;57.87;101969.38;4926058;29;20051;-73
2023/10/02 00:25:17;;;;;;;11.77;6.00;;;;;;;21.18;57.79;101979.16;4936280;29;20054;-72
2023/10/02 00:27:51;;;;;;;10.13;6.13;;;;;;;21.20;57.33;101979.88;4923584;29;20071;-72
2023/10/02 00:30:22;;;;;;;12.27;6.35;;;;;;;21.20;57.54;101974.56;4932687;29;20086;-73
2023/10/02 00:32:50;;;;;;;11.80;6.18;;;;;;;21.19;57.79;101973.72;4935050;29;20067;-73
2023/10/02 00:35:16;;;;;;;12.15;5.85;;;;;;;21.19;57.45;101970.25;4934214;29;20031;-73
2023/10/02 00:37:51;;;;;;;11.55;5.97;;;;;;;21.18;57.55;101974.69;4936608;29;20042;-72
2023/10/02 00:40:22;;;;;;;10.77;5.63;;;;;;;21.19;57.52;101978.19;4929544;29;20032;-72
2023/10/02 00:42:49;;;;;;;10.80;5.82;;;;;;;21.19;57.70;101980.84;4928237;29;20031;-71
2023/10/02 00:45:17;;;;;;;11.57;5.72;;;;;;;21.17;57.69;101972.16;4937115;29;20043;-72
2023/10/02 00:47:45;;;;;;;11.00;6.00;;;;;;;21.17;57.73;101974.81;4926177;29;20032;-75
2023/10/02 00:50:16;;;;;;;10.88;5.60;;;;;;;21.16;57.77;101968.66;4926263;29;20075;-72
2023/10/02 00:53:00;;;;;;;13.35;6.10;;;;;;;21.15;57.48;101964.31;4919693;29;20040;-72
2023/10/02 00:55:35;;;;;;;11.10;6.28;;;;;;;21.16;57.63;101971.31;4930004;29;20126;-72
2023/10/02 00:58:05;;;;;;;12.25;5.85;;;;;;;21.16;57.75;101960.72;4933333;29;20043;-71
2023/10/02 01:00:36;;;;;;;10.68;5.90;;;;;;;21.15;57.51;101964.31;4940653;29;20203;-74
2023/10/02 01:03:05;;;;;;;12.02;6.68;;;;;;;21.13;57.52;101962.75;4937439;29;20027;-73
2023/10/02 01:05:41;;;;;;;10.85;5.93;;;;;;;21.15;57.58;101960.84;4940630;29;20149;-73
2023/10/02 01:08:23;;;;;;;9.85;5.25;;;;;;;21.14;57.31;101961.78;4929694;29;20051;-72
2023/10/02 01:10:59;;;;;;;12.55;6.32;;;;;;;21.15;57.60;101959.00;4932816;29;20042;-72
2023/10/02 01:13:27;;;;;;;10.13;5.53;;;;;;;21.14;57.46;101959.13;4942232;29;20945;-72
2023/10/02 01:15:54;;;;;;;9.55;5.43;;;;;;;21.15;57.41;101955.53;4939590;29;20035;-72
2023/10/02 01:18:22;;;;;;;10.57;5.70;;;;;;;21.13;57.48;101947.69;4923707;29;20039;-76
2023/10/02 01:20:48;;;;;;;11.43;6.18;;;;;;;21.13;57.26;101950.34;4931383;29;20091;-72
2023/10/02 01:23:17;;;;;;;12.35;5.38;;;;;;;21.12;57.35;101953.13;4942972;29;20041;-78
2023/10/02 01:25:47;;;;;;;11.38;5.93;;;;;;;21.13;57.43;101949.50;4931275;29;20051;-73
2023/10/02 01:28:15;;;;;;;9.35;5.35;;;;;;;21.13;57.16;101952.16;4936093;29;20042;-72
2023/10/02 01:30:42;;;;;;;10.90;5.68;;;;;;;21.13;57.30;101953.00;4936863;29;20435;-77
2023/10/02 01:33:22;;;;;;;12.75;6.05;;;;;;;21.11;57.12;101946.97;4923142;29;20028;-73
2023/10/02 01:35:54;;;;;;;11.80;5.65;;;;;;;21.12;57.36;101946.00;4927311;29;20040;-73
2023/10/02 01:38:30;;;;;;;10.75;5.53;;;;;;;21.09;57.21;101935.63;4934606;29;20524;-72
2023/10/02 01:41:06;;;;;;;12.18;5.97;;;;;;;21.12;57.12;101951.28;4935870;29;20871;-72
2023/10/02 01:43:43;;;;;;;11.18;5.50;;;;;;;21.09;57.03;101940.94;4928296;29;20043;-75
2023/10/02 01:46:18;;;;;;;11.70;5.43;;;;;;;21.12;57.20;101953.13;4924633;29;20047;-72
2023/10/02 01:48:44;;;;;;;11.50;5.97;;;;;;;21.11;57.02;101944.31;4916464;29;20584;-71
2023/10/02 01:51:20;;;;;;;11.55;6.10;;;;;;;21.08;57.05;101941.91;4930642;29;20370;-75
2023/10/02 01:53:51;;;;;;;11.77;6.30;;;;;;;21.12;57.15;101953.13;4926677;29;20043;-72
2023/10/02 01:56:36;;;;;;;12.50;5.88;;;;;;;21.10;57.09;101942.63;4933564;29;20036;-72
2023/10/02 01:59:11;;;;;;;11.93;6.22;;;;;;;21.12;57.37;101945.16;4935113;29;20043;-74
2023/10/02 02:01:46;;;;;;;12.32;6.10;;;;;;;21.09;56.91;101934.78;4931507;29;20043;-78
2023/10/02 02:04:14;;;;;;;13.32;6.43;;;;;;;21.11;57.10;101946.13;4933767;29;20031;-77
2023/10/02 02:06:51;;;;;;;12.45;6.47;;;;;;;21.10;57.08;101941.78;4941997;29;20485;-72
2023/10/02 02:09:23;;;;;;;10.65;5.60;;;;;;;21.10;57.16;101939.16;4931102;29;20523;-74
2023/10/02 02:12:07;;;;;;;11.02;6.15;;;;;;;21.09;57.18;101942.75;4927319;29;20107;-72
2023/10/02 02:14:52;;;;;;;;;;;;;;;21.14;56.97;101940.56;4935398;29;20602;-76
2023/10/02 02:17:21;;;;;;;10.70;5.43;;;;;;;21.13;57.01;101947.69;4927235;29;19949;-75
2023/10/02 02:19:50;;;;;;;11.05;6.57;;;;;;;21.12;57.12;101938.03;4927148;29;20043;-72
2023/10/02 02:22:31;;;;;;;12.70;6.35;;;;;;;21.11;56.75;101944.31;4939422;29;20034;-77
2023/10/02 02:25:26;;;;;;;12.23;5.70;;;;;;;21.09;57.02;101945.41;4934928;29;20035;-72
2023/10/02 02:27:52;;;;;;;12.20;5.55;;;;;;;21.09;56.80;101938.28;4923980;29;20063;-77
2023/10/02 02:30:19;;;;;;;12.48;5.95;;;;;;;21.09;57.07;101942.75;4926099;29;20109;-72
2023/10/02 02:32:54;;;;;;;10.38;5.90;;;;;;;21.08;57.12;101938.41;4940191;29;20061;-73
2023/10/02 02:35:21;;;;;;;13.23;6.88;;;;;;;21.09;56.98;101940.09;4932809;29;20127;-75
2023/10/02 02:37:48;;;;;;;12.88;6.20;;;;;;;21.08;57.33;101938.41;4922582;29;20051;-74
2023/10/02 02:40:23;;;;;;;11.85;5.75;;;;;;;21.08;57.15;101947.22;4936736;28;20094;-73
2023/10/02 02:42:52;;;;;;;11.95;5.35;;;;;;;21.09;57.15;101940.09;4937499;29;20066;-72
2023/10/02 02:45:31;;;;;;;10.45;5.63;;;;;;;21.08;57.11;101925.16;4930531;29;20308;-73
2023/10/02 02:48:03;;;;;;;12.52;5.88;;;;;;;21.07;57.00;101926.97;4929867;29;20039;-73
2023/10/02 02:50:49;;;;;;;12.52;6.28;;;;;;;21.06;57.05;101922.63;4927259;29;20037;-72
2023/10/02 02:53:21;;;;;;;11.80;5.88;;;;;;;21.08;56.89;101925.16;4910937;29;20046;-75
2023/10/02 02:56:23;;;;;;;10.63;6.03;;;;;;;21.06;57.14;101924.44;4933930;29;20071;-72
2023/10/02 02:58:55;;;;;;;12.20;5.78;;;;;;;21.06;56.80;101916.47;4928688;29;20039;-72
2023/10/02 03:01:22;;;;;;;11.93;5.68;;;;;;;21.07;57.25;101926.97;4918563;29;20489;-73
2023/10/02 03:03:49;;;;;;;10.60;5.90;;;;;;;21.06;56.99;101925.28;4926476;29;20533;-76
2023/10/02 03:06:18;;;;;;;10.40;5.60;;;;;;;21.05;56.98;101920.94;4941497;29;20039;-76
2023/10/02 03:08:44;;;;;;;12.07;6.10;;;;;;;21.04;56.92;101918.41;4932351;29;20099;-72
2023/10/02 03:11:10;;;;;;;11.43;6.20;;;;;;;21.05;57.14;101915.63;4939471;29;21002;-72
2023/10/02 03:13:39;;;;;;;10.88;5.60;;;;;;;21.06;56.80;101917.34;4940439;29;20028;-73
2023/10/02 03:16:28;;;;;;;12.30;6.10;;;;;;;21.04;56.85;101916.59;4933162;29;20042;-72
2023/10/02 03:18:54;;;;;;;10.45;5.57;;;;;;;21.05;57.04;101906.84;4925867;29;20040;-75
2023/10/02 03:21:24;;;;;;;11.95;5.72;;;;;;;21.06;56.58;101905.88;4922002;29;20038;-75
2023/10/02 03:23:54;;;;;;;9.75;5.57;;;;;;;21.04;57.09;101895.38;4926989;29;20036;-72
2023/10/02 03:26:37;;;;;;;12.02;6.35;;;;;;;21.02;56.90;101884.91;4940556;28;20089;-72
2023/10/02 03:29:11;;;;;;;10.32;5.70;;;;;;;21.04;56.79;101892.75;4930027;29;20044;-72
2023/10/02 03:31:49;;;;;;;10.95;5.55;;;;;;;21.04;56.66;101898.03;4939072;29;20028;-77
2023/10/02 03:34:34;;;;;;;11.27;5.60;;;;;;;21.04;56.98;101902.50;4939436;29;20135;-75
2023/10/02 03:37:00;;;;;;;11.07;5.85;;;;;;;21.05;57.12;101901.56;4941367;29;20856;-72
2023/10/02 03:42:22;;;;;;;10.85;5.80;;;;;;;21.02;56.88;101900.81;4935694;29;20555;-73
2023/10/02 03:44:49;;;;;;;12.10;5.97;;;;;;;21.03;57.14;101904.31;4922036;29;20072;-73
2023/10/02 03:47:15;;;;;;;10.93;5.45;;;;;;;21.02;56.81;101906.09;4934136;29;20027;-72
2023/10/02 03:49:42;;;;;;;13.57;6.10;;;;;;;21.02;56.77;101894.69;4936261;29;20047;-74
2023/10/02 03:52:09;;;;;;;12.02;6.03;;;;;;;21.03;56.86;101901.66;4935201;29;20035;-72
2023/10/02 03:54:35;;;;;;;10.90;6.00;;;;;;;21.02;57.31;101902.63;4913103;29;20035;-72
2023/10/02 03:57:01;;;;;;;12.48;6.00;;;;;;;21.02;56.55;101902.63;4939365;29;20085;-76
2023/10/02 03:59:31;;;;;;;11.20;5.90;;;;;;;21.02;56.83;101905.28;4934635;29;20032;-72
2023/10/02 04:02:24;;;;;;;12.93;6.07;;;;;;;21.01;57.08;101907.09;4912995;29;20127;-73
2023/10/02 04:04:46;;;;;;;12.00;5.70;;;;;;;21.02;56.73;101899.97;4937179;29;20062;-73
2023/10/02 04:07:12;;;;;;;11.30;5.75;;;;;;;21.02;56.75;101910.56;4931193;29;21279;-78
2023/10/02 04:09:38;;;;;;;11.48;6.28;;;;;;;20.99;56.61;101909.00;4937780;29;20146;-73
2023/10/02 04:12:06;;;;;;;12.70;6.75;;;;;;;21.00;56.55;101905.38;4925959;29;20044;-73
2023/10/02 04:14:32;;;;;;;12.65;6.32;;;;;;;21.01;56.77;101900.94;4917915;29;20039;-75
2023/10/02 04:22:22;;;;;;;11.15;5.97;;;;;;;21.01;56.88;101896.50;4937228;29;20046;-72
2023/10/02 04:24:58;;;;;;;;;;;;;;;21.04;56.65;101898.03;4932051;29;20032;-71
2023/10/02 04:32:42;;;;;;;11.40;5.70;;;;;;;21.01;56.69;101899.13;4935220;29;20038;-76
2023/10/02 04:37:57;;;;;;;12.00;5.65;;;;;;;21.00;56.74;101897.44;4934442;29;20523;-73
2023/10/02 04:40:23;;;;;;;12.15;6.07;;;;;;;21.00;56.75;101899.25;4936613;29;20098;-72
2023/10/02 04:42:58;;;;;;;12.70;5.85;;;;;;;20.98;56.78;101896.72;4928469;29;20035;-75
2023/10/02 04:45:26;;;;;;;11.93;6.03;;;;;;;20.97;56.85;101891.53;4935485;29;20066;-72
2023/10/02 04:47:55;;;;;;;11.77;6.38;;;;;;;20.97;56.42;101896.84;4935299;29;20038;-74
2023/10/02 04:53:10;;;;;;;11.35;5.65;;;;;;;20.97;56.48;101895.03;4935465;29;20035;-78
2023/10/02 04:55:42;;;;;;;11.48;5.80;;;;;;;20.98;56.51;101891.44;4933922;29;20059;-77
2023/10/02 04:58:18;;;;;;;12.65;6.15;;;;;;;20.97;56.79;101888.91;4933355;29;20040;-72
2023/10/02 05:03:49;;;;;;;11.05;5.88;;;;;;;20.97;56.71;101891.53;4947315;28;20075;-74
2023/10/02 05:06:39;;;;;;;11.48;5.63;;;;;;;20.97;56.61;101886.25;4936213;29;21158;-72
2023/10/02 05:11:46;;;;;;;13.63;6.78;;;;;;;20.96;56.12;101885.38;4925591;29;20031;-72
2023/10/02 05:14:13;;;;;;;12.15;6.10;;;;;;;20.96;56.57;101882.72;4924004;29;20929;-78
2023/10/02 05:16:40;;;;;;;13.57;7.53;;;;;;;20.96;56.37;101888.03;4929985;29;20046;-72
2023/10/02 05:19:07;;;;;;;11.60;5.65;;;;;;;20.97;56.34;101899.50;4927614;29;20461;-73
2023/10/02 05:21:49;;;;;;;12.30;6.10;;;;;;;20.94;56.40;101897.91;4941603;29;20111;-72
2023/10/02 05:24:16;;;;;;;12.68;5.93;;;;;;;20.95;56.30;101894.31;4938832;29;20485;-74
2023/10/02 05:26:46;;;;;;;12.63;6.75;;;;;;;20.95;56.44;101894.31;4931683;28;20043;-75
2023/10/02 05:29:17;;;;;;;12.13;5.97;;;;;;;20.95;56.50;101898.75;4931980;29;20226;-73
2023/10/02 05:31:52;;;;;;;11.70;5.80;;;;;;;20.94;56.13;101899.72;4916648;29;20040;-77
2023/10/02 05:34:24;;;;;;;11.85;5.85;;;;;;;20.95;56.16;101896.97;4940935;29;20155;-71
2023/10/02 05:37:11;;;;;;;11.70;5.93;;;;;;;20.94;56.34;101902.38;4937430;29;20401;-72
2023/10/02 05:39:40;;;;;;;12.90;6.35;;;;;;;20.94;56.21;101897.91;4933251;29;20069;-76
2023/10/02 05:42:15;;;;;;;13.02;6.10;;;;;;;20.95;56.13;101898.75;4932149;29;20473;-72
2023/10/02 05:44:44;;;;;;;11.52;5.85;;;;;;;20.94;56.32;101897.91;4927465;29;20500;-72
2023/10/02 05:47:15;;;;;;;11.88;6.18;;;;;;;20.95;56.26;101899.59;4913784;29;21018;-72
2023/10/02 05:49:47;;;;;;;13.75;6.38;;;;;;;20.91;56.11;101895.50;4932327;29;20066;-74
2023/10/02 05:52:18;;;;;;;11.80;5.97;;;;;;;20.94;56.26;101905.03;4934451;29;20685;-72
2023/10/02 05:54:47;;;;;;;11.32;6.15;;;;;;;20.94;56.05;101910.31;4932109;29;20043;-72
2023/10/02 05:57:13;;;;;;;13.57;6.55;;;;;;;20.93;55.93;101922.72;4932076;29;20031;-73
2023/10/02 05:59:44;;;;;;;10.93;5.78;;;;;;;20.93;56.05;101922.72;4927869;28;20048;-77
2023/10/02 06:02:14;;;;;;;11.43;6.38;;;;;;;20.89;56.48;101926.56;4930514;29;20047;-74
2023/10/02 06:04:47;;;;;;;11.95;6.00;;;;;;;20.93;56.59;101930.66;4921989;29;20142;-71
2023/10/02 06:07:19;;;;;;;15.43;7.55;;;;;;;20.94;56.20;101912.97;4936745;29;20042;-72
2023/10/02 06:09:47;;;;;;;10.95;6.03;;;;;;;20.95;56.53;101917.28;4923878;29;20047;-73
2023/10/02 06:12:14;;;;;;;12.38;6.25;;;;;;;20.95;56.84;101912.00;4923900;29;20123;-75
2023/10/02 06:14:42;;;;;;;12.15;6.25;;;;;;;20.96;56.92;101914.53;4935498;29;20230;-79
2023/10/02 06:17:12;;;;;;;15.48;6.53;;;;;;;20.97;56.85;101916.22;4927939;29;20036;-75
2023/10/02 06:19:44;;;;;;;12.80;6.20;;;;;;;20.97;56.89;101918.88;4941810;29;20511;-75
2023/10/02 06:22:15;;;;;;;13.88;6.00;;;;;;;20.98;57.25;101917.06;4932434;29;20031;-81
2023/10/02 06:24:42;;;;;;;12.35;6.28;;;;;;;20.97;57.34;101926.81;4934144;29;20070;-73
2023/10/02 06:27:14;;;;;;;11.85;6.45;;;;;;;20.97;57.41;101913.56;4933087;29;20951;-78
2023/10/02 06:29:44;;;;;;;13.48;6.40;;;;;;;20.99;57.56;101930.19;4936621;29;20055;-78
2023/10/02 06:32:22;;;;;;;11.07;6.25;;;;;;;20.98;57.32;101923.22;4922992;29;20040;-74
2023/10/02 06:34:47;;;;;;;11.63;5.95;;;;;;;21.00;57.37;101923.09;4926952;29;20039;-78
2023/10/02 06:37:16;;;;;;;13.10;6.10;;;;;;;21.00;57.48;101928.41;4923007;29;20035;-74
2023/10/02 06:40:06;;;;;;;12.38;6.88;;;;;;;20.97;57.54;101916.22;4923012;29;20036;-78
2023/10/02 06:42:33;;;;;;;12.23;5.70;;;;;;;21.00;57.31;101918.63;4922902;29;20035;-72
2023/10/02 06:45:01;;;;;;;13.98;6.45;;;;;;;21.00;57.60;101925.75;4924577;29;20031;-71
2023/10/02 06:47:29;;;;;;;13.13;6.40;;;;;;;20.98;57.64;101932.97;4941611;29;20471;-73
2023/10/02 06:50:03;;;;;;;11.52;5.93;;;;;;;20.98;58.00;101931.19;4933212;29;20493;-73
2023/10/02 06:52:32;;;;;;;11.63;5.95;;;;;;;20.98;57.72;101931.19;4924023;29;20126;-73
2023/10/02 06:55:01;;;;;;;13.40;6.32;;;;;;;21.02;57.77;101937.91;4925973;29;20517;-73
2023/10/02 06:57:26;;;;;;;17.00;8.82;;;;;;;21.03;57.84;101930.81;4938998;29;20035;-76
2023/10/02 06:59:53;;;;;;;12.88;6.35;;;;;;;21.02;58.00;101931.78;4936555;29;20036;-73
2023/10/02 07:02:22;;;;;;;14.02;6.28;;;;;;;21.02;58.13;101929.13;4865173;28;20051;-74
2023/10/02 07:04:48;;;;;;;14.13;6.57;;;;;;;21.04;57.93;101929.00;4939917;29;20093;-77
2023/10/02 07:07:15;;;;;;;12.65;5.88;;;;;;;21.00;57.93;101920.47;4934044;29;20129;-72
2023/10/02 07:09:40;;;;;;;13.75;6.80;;;;;;;21.04;58.15;101921.06;4928345;29;20281;-74
2023/10/02 07:12:09;;;;;;;12.30;6.28;;;;;;;21.05;58.34;101928.06;4928878;29;20146;-73
2023/10/02 07:14:43;;;;;;;13.50;6.30;;;;;;;21.04;58.39;101929.84;4932592;29;20039;-77
2023/10/02 07:17:18;;;;;;;13.43;6.05;;;;;;;21.04;58.03;101921.06;4928353;29;20109;-77
2023/10/02 07:19:48;;;;;;;18.60;6.65;;;;;;;21.06;58.29;101922.63;4928413;29;20039;-73
2023/10/02 07:22:23;;;;;;;17.92;6.75;;;;;;;21.07;58.34;101923.47;4935407;29;20110;-75
2023/10/02 07:24:52;;;;;;;11.68;6.22;;;;;;;21.07;58.23;101924.31;4922045;29;20054;-76
2023/10/02 07:27:28;;;;;;;13.98;6.30;;;;;;;21.07;58.34;101926.97;4938937;28;20130;-70
2023/10/02 07:29:58;;;;;;;13.35;6.00;;;;;;;21.07;58.75;101915.53;4927652;29;20134;-72
2023/10/02 07:32:31;;;;;;;12.30;6.50;;;;;;;21.10;58.66;101912.63;4925965;29;20028;-74
2023/10/02 07:35:09;;;;;;;12.90;6.13;;;;;;;21.09;58.57;101927.69;4939588;28;20050;-75
2023/10/02 07:37:36;;;;;;;18.38;6.68;;;;;;;21.13;58.21;101923.00;4903723;29;20118;-69
2023/10/02 07:40:19;;;;;;;11.00;5.25;;;;;;;21.12;58.64;101922.13;2176278;29;10022801;-73
2023/10/02 07:42:54;;;;;;;12.63;6.13;;;;;;;21.07;58.48;101923.47;2716537;29;10001778;-76
2023/10/02 07:45:25;;;;;;;13.77;6.35;;;;;;;21.01;58.80;101920.34;4923721;29;20054;-73
2023/10/02 07:48:12;;;;;;;13.05;6.28;;;;;;;20.93;59.20;101928.00;4848684;29;20036;-75
2023/10/02 07:50:39;;;;;;;11.95;6.20;;;;;;;20.87;59.68;101928.50;167081;29;10002753;-74
2023/10/02 07:53:06;;;;;;;12.43;5.78;;;;;;;20.82;59.79;101922.69;4903778;29;20729;-74
2023/10/02 07:55:40;;;;;;;14.43;6.60;;;;;;;20.76;59.93;101921.38;4903590;29;20123;-73
2023/10/02 07:58:08;;;;;;;13.10;6.18;;;;;;;20.74;60.10;101919.78;4904182;29;20374;-76
2023/10/02 08:00:38;;;;;;;12.20;6.47;;;;;;;20.71;60.25;101923.53;4901731;29;20044;-75
2023/10/02 08:03:33;;;;;;;14.00;6.82;;;;;;;20.72;60.32;101927.84;4889960;29;20032;-78
2023/10/02 08:06:20;;;;;;;14.95;6.68;;;;;;;20.75;60.10;101918.81;4903972;29;20047;-73
2023/10/02 08:08:46;;;;;;;15.70;6.90;;;;;;;20.77;59.95;101916.91;4888976;29;20072;-71
2023/10/02 08:11:11;;;;;;;12.38;6.20;;;;;;;20.76;60.20;101918.72;4907262;29;20036;-73
2023/10/02 08:13:39;;;;;;;11.93;6.18;;;;;;;20.77;60.13;101930.16;4904754;29;20032;-75
2023/10/02 08:16:15;;;;;;;14.43;6.70;;;;;;;20.75;60.18;101927.59;4904728;29;20032;-75
2023/10/02 08:18:57;;;;;;;11.73;6.53;;;;;;;20.76;60.28;101931.09;4905501;29;20094;-70
2023/10/02 08:22:08;;;;;;;13.27;5.93;;;;;;;20.79;60.12;101933.50;4905713;29;20035;-71
2023/10/02 08:24:14;;;;;;;12.15;5.90;;;;;;;20.80;59.87;101932.56;4898867;29;20043;-79
2023/10/02 08:26:45;;;;;;;14.27;6.68;;;;;;;20.79;59.95;101941.47;4909865;29;20036;-73
2023/10/02 08:29:13;;;;;;;13.43;6.80;;;;;;;20.80;60.15;101935.22;4909738;29;20043;-84
2023/10/02 08:31:49;;;;;;;12.38;6.60;;;;;;;20.79;60.04;101933.50;4904712;29;20040;-73
2023/10/02 08:34:24;;;;;;;13.05;6.65;;;;;;;20.81;60.28;101934.25;4911836;29;20464;-78
2023/10/02 08:37:05;;;;;;;13.18;6.85;;;;;;;20.82;59.89;101931.50;4904963;29;20036;-72
2023/10/02 08:39:41;;;;;;;11.82;6.32;;;;;;;20.88;60.06;101926.69;4903163;29;20042;-80
2023/10/02 08:42:09;;;;;;;14.27;6.90;;;;;;;20.89;60.12;101931.03;4905888;29;20071;-73
2023/10/02 08:44:42;;;;;;;13.23;6.55;;;;;;;20.87;60.08;101932.94;4903759;29;20127;-74
2023/10/02 08:47:12;;;;;;;12.90;6.45;;;;;;;20.88;59.79;101927.53;4904455;29;20028;-73
2023/10/02 08:49:40;;;;;;;13.63;5.97;;;;;;;20.90;59.93;101930.88;4888486;29;20139;-81
2023/10/02 08:52:12;;;;;;;19.50;7.03;;;;;;;20.90;60.06;101930.06;4896766;29;20507;-77
2023/10/02 08:54:42;;;;;;;13.75;6.50;;;;;;;20.92;59.71;101930.78;4908444;29;20039;-79
2023/10/02 08:57:08;;;;;;;13.07;6.47;;;;;;;20.92;59.83;101921.03;4906704;29;20036;-70
2023/10/02 08:59:40;;;;;;;13.90;6.97;;;;;;;20.92;59.87;101913.09;4906152;29;20044;-78
2023/10/02 09:02:16;;;;;;;12.95;6.35;;;;;;;20.95;59.71;101914.63;4907086;29;20553;-70
2023/10/02 09:05:06;;;;;;;18.63;7.10;;;;;;;20.99;60.12;101908.16;4905047;29;20036;-69
2023/10/02 09:10:24;;;;;;;13.80;6.85;;;;;;;21.26;59.30;101905.16;4906697;29;20107;-72
2023/10/02 09:13:14;;;;;;;12.93;6.28;;;;;;;21.34;59.18;101923.97;4905368;29;21877;-78
2023/10/02 09:15:53;;;;;;;12.35;6.35;;;;;;;21.35;59.16;101912.41;4902323;29;20044;-71
2023/10/02 09:19:07;;;;;;;13.32;6.22;;;;;;;21.35;58.81;101914.22;4906790;29;20083;-75
2023/10/02 09:21:21;;;;;;;14.65;7.18;;;;;;;21.37;58.57;101914.94;4906736;29;20048;-72
2023/10/02 09:23:51;;;;;;;14.52;6.68;;;;;;;21.38;58.58;101909.53;4907214;29;20036;-71
2023/10/02 09:26:16;;;;;;;15.13;6.65;;;;;;;21.41;58.70;101911.06;4908370;29;20558;-79
2023/10/02 09:28:56;;;;;;;12.77;6.35;;;;;;;21.41;58.44;101905.75;4905745;29;20671;-71
2023/10/02 09:31:24;;;;;;;12.50;6.78;;;;;;;21.43;58.59;101906.50;4906133;29;20079;-72
2023/10/02 09:33:51;;;;;;;15.32;7.05;;;;;;;21.43;58.30;101916.25;4906302;29;20039;-75
2023/10/02 09:36:19;;;;;;;14.20;6.78;;;;;;;21.44;58.53;101910.81;4907563;29;20035;-71
2023/10/02 09:38:46;;;;;;;16.95;6.85;;;;;;;21.43;58.75;101914.47;4905904;29;20032;-75
2023/10/02 09:41:15;;;;;;;13.20;7.05;;;;;;;21.44;58.73;101916.13;4905058;29;20044;-70
2023/10/02 09:43:42;;;;;;;13.20;6.60;;;;;;;21.42;58.95;101912.75;4905875;29;20063;-71
2023/10/02 09:46:20;;;;;;;13.00;6.13;;;;;;;21.44;58.86;101910.00;4906248;29;20039;-70
2023/10/02 09:49:03;;;;;;;13.55;6.18;;;;;;;21.44;58.82;101908.19;4905324;29;20036;-73
2023/10/02 09:52:07;;;;;;;12.98;6.68;;;;;;;21.46;58.56;101906.28;4906095;29;20378;-71
2023/10/02 09:54:40;;;;;;;15.57;6.80;;;;;;;21.48;58.51;101908.81;4904689;29;20123;-75
2023/10/02 09:57:15;;;;;;;13.63;6.93;;;;;;;21.30;58.89;101903.97;4887364;29;20116;-72
2023/10/02 09:59:47;;;;;;;16.60;6.50;;;;;;;21.23;59.33;101907.22;4901907;29;20046;-73
2023/10/02 10:05:02;;;;;;;13.85;6.72;;;;;;;21.12;59.90;101913.34;4915459;29;20040;-72
2023/10/02 10:07:46;;;;;;;13.00;6.40;;;;;;;21.09;59.90;101905.63;4914099;29;20044;-72
2023/10/02 10:10:47;;;;;;;13.30;6.88;;;;;;;21.06;59.70;101909.38;4908955;29;20047;-73
2023/10/02 10:13:31;;;;;;;15.00;6.30;;;;;;;21.04;60.06;101900.69;4908397;29;20075;-73
2023/10/02 10:16:23;;;;;;;14.32;7.05;;;;;;;21.06;60.02;101895.28;4907843;29;20036;-72
2023/10/02 10:21:56;;;;;;;13.48;6.28;;;;;;;21.06;59.61;101887.31;4907004;29;20162;-73
2023/10/02 10:24:51;;;;;;;13.98;6.65;;;;;;;21.04;59.93;101879.50;4904289;29;20104;-70
2023/10/02 10:27:43;;;;;;;13.60;6.20;;;;;;;21.05;59.83;101888.31;4907908;29;20956;-73
2023/10/02 10:30:33;;;;;;;14.48;6.45;;;;;;;21.08;60.13;101883.59;4903637;29;20055;-71
2023/10/02 10:33:15;;;;;;;12.10;6.40;;;;;;;21.07;59.90;101876.59;4907445;29;20924;-72
2023/10/02 10:35:52;;;;;;;17.33;6.60;;;;;;;21.06;60.05;101880.25;4908618;29;20151;-72
2023/10/02 10:38:29;;;;;;;14.02;6.43;;;;;;;21.07;59.79;101889.03;4905861;29;20036;-71
2023/10/02 10:40:54;;;;;;;13.90;7.25;;;;;;;21.07;59.67;101875.78;4906721;29;20067;-76
2023/10/02 10:43:26;;;;;;;13.82;7.55;;;;;;;21.06;60.12;101869.63;4906565;29;20474;-74
2023/10/02 10:45:54;;;;;;;13.35;6.18;;;;;;;21.07;59.94;101870.47;4906060;29;20044;-74
2023/10/02 10:48:23;;;;;;;12.10;6.28;;;;;;;21.08;59.59;101866.84;4907777;29;20481;-76
2023/10/02 10:50:59;;;;;;;12.85;6.00;;;;;;;21.12;59.75;101873.59;4907283;29;20036;-72
2023/10/02 10:53:28;;;;;;;10.50;5.90;;;;;;;21.13;59.39;101867.34;4904369;29;20036;-70
2023/10/02 10:55:59;;;;;;;12.68;6.07;;;;;;;21.10;60.09;101868.41;4905144;29;20035;-73
2023/10/02 10:58:31;;;;;;;12.95;6.50;;;;;;;21.08;59.90;101864.19;4903500;29;20072;-75
2023/10/02 11:00:59;;;;;;;14.60;6.53;;;;;;;21.08;59.73;101861.53;4888043;29;20139;-78
2023/10/02 11:03:26;;;;;;;18.15;6.57;;;;;;;21.10;59.57;101867.59;4902595;29;20126;-73
2023/10/02 11:05:52;;;;;;;11.95;6.15;;;;;;;21.10;59.78;101862.28;4902532;29;20036;-72
2023/10/02 11:08:25;;;;;;;14.00;6.65;;;;;;;21.08;59.56;101848.28;4902377;29;20032;-72
2023/10/02 11:11:09;;;;;;;15.68;7.10;;;;;;;21.09;59.42;101852.63;4899548;29;20565;-77
2023/10/02 11:13:58;;;;;;;14.80;6.37;;;;;;;21.13;59.55;101852.28;4905154;29;20035;-73
2023/10/02 11:16:37;;;;;;;13.10;6.50;;;;;;;21.17;59.67;101847.56;4904531;29;20071;-70
2023/10/02 11:19:21;;;;;;;11.68;6.15;;;;;;;21.17;59.61;101847.56;4905028;29;20063;-74
2023/10/02 11:22:14;;;;;;;13.57;6.77;;;;;;;21.21;59.49;101843.72;4906576;29;21322;-71
2023/10/02 11:24:53;;;;;;;11.35;6.18;;;;;;;21.22;59.68;101837.47;4907395;29;20039;-73
2023/10/02 11:27:19;;;;;;;14.13;7.30;;;;;;;21.26;59.61;101841.53;4905781;29;20047;-70
2023/10/02 11:30:00;;;;;;;13.15;6.82;;;;;;;21.25;60.29;101844.31;4903556;29;20059;-73
2023/10/02 11:32:46;;;;;;;17.88;7.15;;;;;;;21.22;60.00;101842.78;4903543;29;20039;-74
2023/10/02 11:35:11;;;;;;;15.48;7.00;;;;;;;21.20;60.35;101832.28;4905438;29;20132;-72
2023/10/02 11:37:45;;;;;;;15.40;7.15;;;;;;;21.20;59.84;101834.94;4907415;29;20126;-73
2023/10/02 11:40:10;;;;;;;13.95;7.38;;;;;;;21.22;59.84;101826.88;4903754;29;20035;-77
2023/10/02 11:42:36;;;;;;;15.13;7.25;;;;;;;21.22;59.94;101823.34;4908636;29;20051;-78
2023/10/02 11:45:21;;;;;;;13.52;6.65;;;;;;;21.20;60.14;101828.78;4905364;29;20047;-71
2023/10/02 11:47:46;;;;;;;15.90;7.32;;;;;;;21.21;59.79;101830.47;4903695;29;20068;-74
2023/10/02 11:50:16;;;;;;;14.55;7.13;;;;;;;21.22;60.14;101823.34;4904528;29;20039;-72
2023/10/02 11:52:41;;;;;;;13.90;6.93;;;;;;;21.22;59.84;101818.91;4887364;29;20039;-76
2023/10/02 11:55:06;;;;;;;14.15;6.70;;;;;;;21.22;59.80;101812.75;4902451;29;20417;-67
2023/10/02 11:57:33;;;;;;;15.95;7.15;;;;;;;21.22;60.15;101813.63;4904401;29;20071;-71
2023/10/02 11:59:59;;;;;;;16.45;8.40;;;;;;;21.23;60.09;101806.50;4906177;29;20039;-79
2023/10/02 12:02:25;;;;;;;15.75;7.22;;;;;;;21.26;60.39;101811.56;4905081;29;20032;-70
2023/10/02 12:04:52;;;;;;;13.73;6.88;;;;;;;21.26;60.38;101800.94;4901094;29;20047;-73
2023/10/02 12:07:17;;;;;;;17.25;7.05;;;;;;;21.27;60.16;101803.47;4892644;29;20147;-72
2023/10/02 12:09:47;;;;;;;15.95;7.28;;;;;;;21.29;60.10;101801.53;4903533;29;20031;-75
2023/10/02 12:12:13;;;;;;;13.00;6.55;;;;;;;21.49;59.65;101802.63;4905053;29;20556;-74
2023/10/02 12:14:39;;;;;;;13.48;6.68;;;;;;;21.58;59.22;101798.38;4903361;29;20036;-76
2023/10/02 12:17:24;;;;;;;13.38;6.35;;;;;;;21.66;58.63;101801.25;4903974;29;20044;-69
2023/10/02 12:19:51;;;;;;;16.80;7.30;;;;;;;21.59;59.31;101793.91;4900711;29;20050;-73